Time;durP1;ratioP1;P1;durP2;ratioP2;P2;SDS_P1;SDS_P2;PMS_P1;PMS_P2;Temp;Humidity;BMP_temperature;BMP_pressure;BME280_temperature;BME280_humidity;BME280_pressure;Samples;Min_cycle;Max_cycle;Signal;HPM_P1;HPM_P2
2021/06/09 00:01:29;;;;;;;1.30;1.20;;;;;;;-138.14;100.00;63448.66;4987189;28;20270;-75
2021/06/09 00:04:08;;;;;;;1.45;1.35;;;;;;;-138.14;100.00;63448.66;4978949;28;20689;-72
2021/06/09 00:06:38;;;;;;;2.63;1.33;;;;;;;-138.14;100.00;63448.66;4960833;28;20310;-72
2021/06/09 00:09:07;;;;;;;3.35;1.45;;;;;;;-138.14;100.00;63448.66;4978618;28;20223;-74
2021/06/09 00:11:36;;;;;;;1.45;1.30;;;;;;;-138.14;100.00;63448.66;4961111;28;20660;-73
2021/06/09 00:14:02;;;;;;;1.40;1.30;;;;;;;-138.14;100.00;63448.66;4977339;28;20181;-74
2021/06/09 00:16:40;;;;;;;2.22;1.48;;;;;;;-138.14;100.00;63448.66;4977229;28;20283;-75
2021/06/09 00:19:10;;;;;;;1.92;1.38;;;;;;;-138.14;100.00;63448.66;4977604;28;20214;-74
2021/06/09 00:21:38;;;;;;;1.20;1.10;;;;;;;-138.14;100.00;63448.66;4951536;28;20228;-74
2021/06/09 00:24:05;;;;;;;2.10;1.30;;;;;;;-138.14;100.00;63448.66;4947405;28;20220;-75
2021/06/09 00:26:41;;;;;;;1.40;1.10;;;;;;;-138.14;100.00;63448.66;4971801;28;20243;-74
2021/06/09 00:29:10;;;;;;;2.53;1.40;;;;;;;-138.14;100.00;63448.66;4959391;28;20205;-74
2021/06/09 00:31:39;;;;;;;1.45;1.30;;;;;;;-138.14;100.00;63448.66;4959094;28;20216;-72
2021/06/09 00:34:06;;;;;;;1.23;1.17;;;;;;;-138.14;100.00;63448.66;4966475;28;20576;-73
2021/06/09 00:36:32;;;;;;;1.63;1.42;;;;;;;-138.14;100.00;63448.66;4959660;28;20222;-73
2021/06/09 00:39:00;;;;;;;1.50;1.40;;;;;;;-138.14;100.00;63448.66;4961697;28;20296;-73
2021/06/09 00:41:27;;;;;;;2.27;1.40;;;;;;;-138.14;100.00;63448.66;4952852;28;20313;-70
2021/06/09 00:43:53;;;;;;;1.38;1.27;;;;;;;-138.14;100.00;63448.66;4959779;28;20219;-74
2021/06/09 00:46:20;;;;;;;1.45;1.35;;;;;;;-138.14;100.00;63448.66;4979856;28;20699;-74
2021/06/09 00:48:47;;;;;;;1.42;1.33;;;;;;;-138.14;100.00;63448.66;4996812;28;20583;-72
2021/06/09 00:51:16;;;;;;;1.70;1.60;;;;;;;-138.14;100.00;63448.66;4988706;28;20262;-73
2021/06/09 00:53:49;;;;;;;1.50;1.43;;;;;;;-138.14;100.00;63448.66;4963859;28;20669;-73
2021/06/09 00:56:19;;;;;;;1.67;1.57;;;;;;;-138.14;100.00;63448.66;4962504;28;20883;-73
2021/06/09 00:58:46;;;;;;;1.50;1.40;;;;;;;-138.14;100.00;63448.66;4964635;28;20185;-73
2021/06/09 01:01:13;;;;;;;2.53;1.23;;;;;;;-138.14;100.00;63448.66;4963803;28;20291;-74
2021/06/09 01:03:42;;;;;;;1.40;1.30;;;;;;;-138.14;100.00;63448.66;4979518;28;20213;-73
2021/06/09 01:06:11;;;;;;;1.60;1.50;;;;;;;-138.14;100.00;63448.66;4962948;28;20224;-74
2021/06/09 01:08:55;;;;;;;1.73;1.40;;;;;;;-138.14;100.00;63448.66;4984422;28;20188;-74
2021/06/09 01:11:26;;;;;;;1.73;1.17;;;;;;;-138.14;100.00;63448.66;4964190;28;20298;-71
2021/06/09 01:13:53;;;;;;;2.00;1.30;;;;;;;-138.14;100.00;63448.66;4979607;28;20242;-72
2021/06/09 01:16:20;;;;;;;1.60;1.50;;;;;;;-138.14;100.00;63448.66;4978786;28;20220;-74
2021/06/09 01:18:49;;;;;;;2.95;1.40;;;;;;;-138.14;100.00;63448.66;4980121;28;20208;-73
2021/06/09 01:21:27;;;;;;;2.47;1.53;;;;;;;-138.14;100.00;63448.66;4979074;28;20223;-73
2021/06/09 01:23:53;;;;;;;1.60;1.50;;;;;;;-138.14;100.00;63448.66;4981010;28;20204;-73
2021/06/09 01:26:26;;;;;;;2.03;1.40;;;;;;;-138.14;100.00;63448.66;4994797;28;20231;-73
2021/06/09 01:28:56;;;;;;;1.40;1.30;;;;;;;-138.14;100.00;63448.66;4997186;28;20535;-74
2021/06/09 01:31:22;;;;;;;1.77;1.50;;;;;;;-138.14;100.00;63448.66;4978929;28;20371;-73
2021/06/09 01:33:48;;;;;;;1.40;1.30;;;;;;;-138.14;100.00;63448.66;4963253;28;20181;-73
2021/06/09 01:36:17;;;;;;;3.67;1.60;;;;;;;-138.14;100.00;63448.66;4978693;28;20318;-75
2021/06/09 01:38:52;;;;;;;1.47;1.37;;;;;;;-138.14;100.00;63448.66;4964809;28;20603;-75
2021/06/09 01:41:29;;;;;;;1.67;1.57;;;;;;;-138.14;100.00;63448.66;4979185;28;20278;-74
2021/06/09 01:43:55;;;;;;;1.40;1.30;;;;;;;-138.14;100.00;63448.66;4964298;28;20220;-73
2021/06/09 01:46:23;;;;;;;2.27;1.80;;;;;;;-138.14;100.00;63448.66;4994381;28;20224;-73
2021/06/09 01:48:59;;;;;;;2.13;1.40;;;;;;;-138.14;100.00;63448.66;4996428;28;20192;-74
2021/06/09 01:51:25;;;;;;;1.60;1.50;;;;;;;-138.14;100.00;63448.66;4960849;28;20315;-74
2021/06/09 01:53:51;;;;;;;1.90;1.47;;;;;;;-138.14;100.00;63448.66;4990004;28;20189;-72
2021/06/09 01:56:17;;;;;;;1.70;1.60;;;;;;;-138.14;100.00;63448.66;4959288;28;20309;-73
2021/06/09 01:58:48;;;;;;;2.03;1.70;;;;;;;-138.14;100.00;63448.66;4961160;28;20189;-75
2021/06/09 02:01:18;;;;;;;1.67;1.57;;;;;;;-138.14;100.00;63448.66;4959172;28;20304;-75
2021/06/09 02:03:44;;;;;;;1.80;1.50;;;;;;;-138.14;100.00;63448.66;4959750;28;20308;-73
2021/06/09 02:06:15;;;;;;;1.50;1.40;;;;;;;-138.14;100.00;63448.66;4959370;28;20229;-74
2021/06/09 02:08:42;;;;;;;1.60;1.50;;;;;;;-138.14;100.00;63448.66;4960026;28;20255;-74
2021/06/09 02:11:08;;;;;;;1.83;1.73;;;;;;;-138.14;100.00;63448.66;4958548;28;20605;-74
2021/06/09 02:17:23;;;;;;;1.63;1.53;;;;;;;-138.14;100.00;63448.66;4992152;28;20737;-73
2021/06/09 02:19:53;;;;;;;1.70;1.60;;;;;;;-138.14;100.00;63448.66;4960624;28;20659;-74
2021/06/09 02:22:20;;;;;;;2.60;1.70;;;;;;;-138.14;100.00;63448.66;4957793;28;20729;-73
2021/06/09 02:24:47;;;;;;;2.03;1.80;;;;;;;-138.14;100.00;63448.66;4962949;28;20189;-73
2021/06/09 02:27:13;;;;;;;2.17;1.37;;;;;;;-138.14;100.00;63448.66;4993723;28;20231;-75
2021/06/09 02:29:39;;;;;;;2.00;1.80;;;;;;;-138.14;100.00;63448.66;4995100;28;20213;-74
2021/06/09 02:32:16;;;;;;;1.93;1.67;;;;;;;-138.14;100.00;63448.66;4977513;28;20251;-73
2021/06/09 02:34:42;;;;;;;1.87;1.70;;;;;;;-138.14;100.00;63448.66;4995934;28;20184;-72
2021/06/09 02:37:09;;;;;;;1.90;1.80;;;;;;;-138.14;100.00;63448.66;4978067;28;20225;-73
2021/06/09 02:39:35;;;;;;;2.07;1.90;;;;;;;-138.14;100.00;63448.66;4981924;28;20197;-73
2021/06/09 02:42:04;;;;;;;2.73;1.90;;;;;;;-138.14;100.00;63448.66;4977705;28;20217;-74
2021/06/09 02:44:30;;;;;;;1.80;1.70;;;;;;;-138.14;100.00;63448.66;4978996;28;20311;-73
2021/06/09 02:46:59;;;;;;;2.00;1.57;;;;;;;-138.14;100.00;63448.66;4977020;28;20221;-73
2021/06/09 02:49:28;;;;;;;2.67;1.90;;;;;;;-138.14;100.00;63448.66;4978884;28;20339;-74
2021/06/09 02:52:07;;;;;;;1.90;1.70;;;;;;;-138.14;100.00;63448.66;4958331;28;20304;-74
2021/06/09 02:54:38;;;;;;;2.50;1.97;;;;;;;-138.14;100.00;63448.66;4978214;28;20189;-74
2021/06/09 02:57:29;;;;;;;2.40;2.13;;;;;;;-138.14;100.00;63448.66;4962311;28;20224;-74
2021/06/09 03:00:11;;;;;;;1.93;1.60;;;;;;;-138.14;100.00;63448.66;5011392;28;20201;-76
2021/06/09 03:02:41;;;;;;;1.77;1.67;;;;;;;-138.14;100.00;63448.66;4978005;28;20233;-75
2021/06/09 03:05:26;;;;;;;2.03;1.80;;;;;;;-138.14;100.00;63448.66;5010204;28;20217;-73
2021/06/09 03:08:05;;;;;;;2.70;1.70;;;;;;;-138.14;100.00;63448.66;4979583;28;20185;-73
2021/06/09 03:11:09;;;;;;;2.83;2.10;;;;;;;-138.14;100.00;63448.66;4978172;28;20332;-74
2021/06/09 03:14:04;;;;;;;2.17;1.80;;;;;;;-138.14;100.00;63448.66;4989459;28;20185;-75
2021/06/09 03:16:34;;;;;;;2.00;1.80;;;;;;;-138.14;100.00;63448.66;4984156;28;20224;-74
2021/06/09 03:19:04;;;;;;;1.87;1.77;;;;;;;-138.14;100.00;63448.66;4967274;28;20209;-74
2021/06/09 03:21:43;;;;;;;1.80;1.70;;;;;;;-138.14;100.00;63448.66;4955730;28;20276;-74
2021/06/09 03:24:13;;;;;;;1.90;1.80;;;;;;;-138.14;100.00;63448.66;4971483;28;20638;-73
2021/06/09 03:26:50;;;;;;;1.93;1.83;;;;;;;-138.14;100.00;63448.66;4985581;28;20225;-73
2021/06/09 03:29:24;;;;;;;2.30;1.60;;;;;;;-138.14;100.00;63448.66;4991337;28;20212;-73
2021/06/09 03:32:10;;;;;;;2.23;1.70;;;;;;;-138.14;100.00;63448.66;4990122;28;20221;-72
2021/06/09 03:34:48;;;;;;;1.90;1.80;;;;;;;-138.14;100.00;63448.66;4975918;28;20666;-73
2021/06/09 03:37:18;;;;;;;2.10;1.93;;;;;;;-138.14;100.00;63448.66;4974421;28;20252;-73
2021/06/09 03:39:47;;;;;;;1.67;1.57;;;;;;;-138.14;100.00;63448.66;4974670;28;20232;-74
2021/06/09 03:42:14;;;;;;;3.43;1.80;;;;;;;-138.14;100.00;63448.66;4972551;28;20230;-74
2021/06/09 03:44:59;;;;;;;1.90;1.80;;;;;;;-138.14;100.00;63448.66;4958924;28;20221;-73
2021/06/09 03:47:26;;;;;;;2.13;1.77;;;;;;;-138.14;100.00;63448.66;4973777;28;20230;-74
2021/06/09 03:49:56;;;;;;;2.20;2.00;;;;;;;-138.14;100.00;63448.66;4974868;28;20288;-75
2021/06/09 03:52:22;;;;;;;1.70;1.60;;;;;;;-138.14;100.00;63448.66;4985593;28;20222;-74
2021/06/09 03:54:56;;;;;;;2.47;1.80;;;;;;;-138.14;100.00;63448.66;4961602;28;20220;-75
2021/06/09 03:57:28;;;;;;;2.07;1.87;;;;;;;-138.14;100.00;63448.66;4978710;28;20231;-74
2021/06/09 03:59:55;;;;;;;2.03;1.80;;;;;;;-138.14;100.00;63448.66;4978814;28;20594;-73
2021/06/09 04:02:22;;;;;;;1.80;1.70;;;;;;;-138.14;100.00;63448.66;4992434;28;20761;-74
2021/06/09 04:04:54;;;;;;;2.50;1.70;;;;;;;-138.14;100.00;63448.66;4996918;28;20239;-74
2021/06/09 04:07:23;;;;;;;2.00;1.80;;;;;;;-138.14;100.00;63448.66;4982342;28;20604;-74
2021/06/09 04:09:50;;;;;;;1.53;1.43;;;;;;;-138.14;100.00;63448.66;4997884;28;20301;-74
2021/06/09 04:12:19;;;;;;;1.77;1.63;;;;;;;-138.14;100.00;63448.66;4980756;28;20235;-74
2021/06/09 04:14:52;;;;;;;1.93;1.73;;;;;;;-138.14;100.00;63448.66;4965215;28;20666;-72
2021/06/09 04:17:25;;;;;;;1.70;1.60;;;;;;;-138.14;100.00;63448.66;4981364;28;20303;-75
2021/06/09 04:19:52;;;;;;;1.83;1.70;;;;;;;-138.14;100.00;63448.66;4981609;28;20267;-74
2021/06/09 04:22:21;;;;;;;1.73;1.60;;;;;;;-138.14;100.00;63448.66;4965466;28;20208;-73
2021/06/09 04:24:47;;;;;;;1.95;1.70;;;;;;;-138.14;100.00;63448.66;4981432;28;20192;-73
2021/06/09 04:27:18;;;;;;;1.90;1.75;;;;;;;-138.14;100.00;63448.66;4976070;28;20312;-73
2021/06/09 04:29:44;;;;;;;2.05;1.90;;;;;;;-138.14;100.00;63448.66;4978585;28;20216;-73
2021/06/09 04:32:13;;;;;;;3.08;1.67;;;;;;;-138.14;100.00;63448.66;4983626;28;20343;-73
2021/06/09 04:34:50;;;;;;;1.90;1.50;;;;;;;-138.14;100.00;63448.66;4978638;28;20194;-74
2021/06/09 04:37:18;;;;;;;1.90;1.20;;;;;;;-138.14;100.00;63448.66;4993652;28;20233;-74
2021/06/09 04:39:48;;;;;;;1.80;1.70;;;;;;;-138.14;100.00;63448.66;4994008;28;20280;-74
2021/06/09 04:42:18;;;;;;;3.75;1.70;;;;;;;-138.14;100.00;63448.66;4977049;28;20218;-75
2021/06/09 04:44:47;;;;;;;1.83;1.42;;;;;;;-138.14;100.00;63448.66;4993815;28;20201;-74
2021/06/09 04:47:14;;;;;;;1.50;1.40;;;;;;;-138.14;100.00;63448.66;4962628;28;20221;-73
2021/06/09 04:49:48;;;;;;;1.70;1.40;;;;;;;-138.14;100.00;63448.66;4945817;28;20651;-74
2021/06/09 04:52:17;;;;;;;1.63;1.52;;;;;;;-138.14;100.00;63448.66;4959045;28;20712;-74
2021/06/09 04:55:23;;;;;;;2.20;1.67;;;;;;;-138.14;100.00;63448.66;5012946;28;20200;-75
2021/06/09 04:57:52;;;;;;;20.48;15.65;;;;;;;-138.14;100.00;63448.66;4994211;28;20299;-75
2021/06/09 05:00:42;;;;;;;13.85;11.18;;;;;;;-138.14;100.00;63448.66;4992312;28;20229;-74
2021/06/09 05:03:08;;;;;;;4.47;2.88;;;;;;;-138.14;100.00;63448.66;4993121;28;20217;-74
2021/06/09 05:05:37;;;;;;;2.13;1.92;;;;;;;-138.14;100.00;63448.66;4961375;28;20782;-75
2021/06/09 05:08:07;;;;;;;1.58;1.48;;;;;;;-138.14;100.00;63448.66;4994146;28;20184;-75
2021/06/09 05:10:36;;;;;;;1.45;1.30;;;;;;;-138.14;100.00;63448.66;4992710;28;20226;-75
2021/06/09 05:13:15;;;;;;;2.03;1.83;;;;;;;-138.14;100.00;63448.66;4977024;28;20241;-76
2021/06/09 05:16:03;;;;;;;9.52;7.85;;;;;;;-138.14;100.00;63448.66;5002082;28;20370;-77
2021/06/09 05:18:43;;;;;;;1.60;1.50;;;;;;;-138.14;100.00;63448.66;4982071;28;20203;-76
2021/06/09 05:21:11;;;;;;;1.70;1.60;;;;;;;-138.14;100.00;63448.66;4995372;28;20761;-75
2021/06/09 05:23:45;;;;;;;1.85;1.30;;;;;;;-138.14;100.00;63448.66;4997810;28;20209;-75
2021/06/09 05:26:17;;;;;;;1.20;1.20;;;;;;;-138.14;100.00;63448.66;4996407;28;20235;-74
2021/06/09 05:28:49;;;;;;;1.88;1.30;;;;;;;-138.14;100.00;63448.66;4976013;28;20201;-75
2021/06/09 05:31:25;;;;;;;2.90;1.35;;;;;;;-138.14;100.00;63448.66;4995155;28;20271;-76
2021/06/09 05:33:52;;;;;;;1.52;1.42;;;;;;;-138.14;100.00;63448.66;4980012;28;20686;-76
2021/06/09 05:36:21;;;;;;;1.52;1.40;;;;;;;-138.14;100.00;63448.66;4953787;28;20307;-76
2021/06/09 05:38:47;;;;;;;1.70;1.40;;;;;;;-138.14;100.00;63448.66;4976886;28;20836;-76
2021/06/09 05:41:17;;;;;;;1.42;1.30;;;;;;;-138.14;100.00;63448.66;4984586;28;20229;-74
2021/06/09 05:43:45;;;;;;;2.17;1.58;;;;;;;-138.14;100.00;63448.66;4961784;28;20692;-75
2021/06/09 05:46:17;;;;;;;2.72;1.30;;;;;;;-138.14;100.00;63448.66;4968950;28;20765;-75
2021/06/09 05:48:54;;;;;;;1.45;1.35;;;;;;;-138.14;100.00;63448.66;4993638;28;20194;-75
2021/06/09 05:51:22;;;;;;;1.17;1.10;;;;;;;-138.14;100.00;63448.66;4976823;28;20225;-76
2021/06/09 05:56:56;;;;;;;1.98;1.30;;;;;;;-138.14;100.00;63448.66;4981320;28;20235;-76
2021/06/09 05:59:23;;;;;;;1.33;1.23;;;;;;;-138.14;100.00;63448.66;4981713;28;20709;-75
2021/06/09 06:01:52;;;;;;;1.52;1.30;;;;;;;-138.14;100.00;63448.66;4979025;28;20232;-75
2021/06/09 06:04:18;;;;;;;1.52;1.42;;;;;;;-138.14;100.00;63448.66;4966484;28;20215;-75
2021/06/09 06:06:52;;;;;;;2.03;1.30;;;;;;;-138.14;100.00;63448.66;4965669;28;20730;-77
2021/06/09 06:09:21;;;;;;;1.42;1.33;;;;;;;-138.14;100.00;63448.66;4968208;28;20209;-76
2021/06/09 06:11:59;;;;;;;2.40;1.77;;;;;;;-138.14;100.00;63448.66;4982986;28;20224;-76
2021/06/09 06:14:28;;;;;;;1.67;1.40;;;;;;;-138.14;100.00;63448.66;4966979;28;20741;-75
2021/06/09 06:16:58;;;;;;;1.45;1.35;;;;;;;-138.14;100.00;63448.66;4980836;28;20286;-74
2021/06/09 06:19:39;;;;;;;3.90;1.20;;;;;;;-138.14;100.00;63448.66;4980619;28;20208;-75
2021/06/09 06:22:11;;;;;;;1.48;1.33;;;;;;;-138.14;100.00;63448.66;4979900;28;20235;-75
2021/06/09 06:24:47;;;;;;;1.55;1.10;;;;;;;-138.14;100.00;63448.66;4979983;28;20768;-75
2021/06/09 06:27:27;;;;;;;1.40;1.30;;;;;;;-138.14;100.00;63448.66;4950927;28;20592;-75
2021/06/09 06:29:56;;;;;;;1.35;1.20;;;;;;;-138.14;100.00;63448.66;4945147;28;20205;-76
2021/06/09 06:32:30;;;;;;;1.50;1.40;;;;;;;-138.14;100.00;63448.66;4945678;28;20245;-78
2021/06/09 06:34:57;;;;;;;1.63;1.17;;;;;;;-138.14;100.00;63448.66;4946807;28;20821;-75
2021/06/09 06:37:32;;;;;;;1.50;1.40;;;;;;;-138.14;100.00;63448.66;4935915;28;20225;-75
2021/06/09 06:40:23;;;;;;;0.90;0.90;;;;;;;-138.14;100.00;63448.66;4961925;28;20309;-76
2021/06/09 06:42:55;;;;;;;1.77;1.27;;;;;;;-138.14;100.00;63448.66;4960793;28;20225;-77
2021/06/09 06:45:22;;;;;;;1.25;1.10;;;;;;;-138.14;100.00;63448.66;4956355;28;20198;-75
2021/06/09 06:47:52;;;;;;;1.30;1.20;;;;;;;-138.14;100.00;63448.66;4961383;28;20193;-75
2021/06/09 06:50:23;;;;;;;1.40;1.30;;;;;;;-138.14;100.00;63448.66;4936280;28;20212;-76
2021/06/09 06:52:50;;;;;;;1.60;1.20;;;;;;;-138.14;100.00;63448.66;4979521;28;20184;-75
2021/06/09 06:55:21;;;;;;;1.30;1.20;;;;;;;-138.14;100.00;63448.66;4978904;28;20675;-74
2021/06/09 06:57:59;;;;;;;1.30;1.20;;;;;;;-138.14;100.00;63448.66;4992399;28;20746;-78
2021/06/09 07:00:31;;;;;;;1.48;1.38;;;;;;;-138.14;100.00;63448.66;4969181;28;20208;-76
2021/06/09 07:03:04;;;;;;;1.20;1.10;;;;;;;-138.14;100.00;63448.66;4973781;28;20613;-76
2021/06/09 07:05:33;;;;;;;1.30;1.10;;;;;;;-138.14;100.00;63448.66;4976708;28;20229;-76
2021/06/09 07:08:00;;;;;;;1.00;1.00;;;;;;;-138.14;100.00;63448.66;4976111;28;20560;-77
2021/06/09 07:10:32;;;;;;;1.55;1.40;;;;;;;-138.14;100.00;63448.66;4958573;28;20797;-75
2021/06/09 07:13:06;;;;;;;1.42;1.33;;;;;;;-138.14;100.00;63448.66;4944089;28;20683;-76
2021/06/09 07:15:39;;;;;;;1.20;1.10;;;;;;;-138.14;100.00;63448.66;4945316;28;20691;-75
2021/06/09 07:18:09;;;;;;;2.88;1.42;;;;;;;-138.14;100.00;63448.66;4961009;28;20205;-76
2021/06/09 07:20:35;;;;;;;2.00;1.20;;;;;;;-138.14;100.00;63448.66;4942378;28;20316;-76
2021/06/09 07:23:09;;;;;;;1.30;1.20;;;;;;;-138.14;100.00;63448.66;4950597;28;20245;-75
2021/06/09 07:25:39;;;;;;;1.20;1.10;;;;;;;-138.14;100.00;63448.66;4945210;28;20229;-77
2021/06/09 07:28:14;;;;;;;1.27;1.10;;;;;;;-138.14;100.00;63448.66;4944780;28;20182;-76
2021/06/09 07:31:18;;;;;;;0.90;0.90;;;;;;;-138.14;100.00;63448.66;4958622;28;20718;-76
2021/06/09 07:33:47;;;;;;;1.58;1.23;;;;;;;-138.14;100.00;63448.66;4919439;29;20194;-75
2021/06/09 07:36:25;;;;;;;3.28;1.00;;;;;;;-138.14;100.00;63448.66;4963311;28;20225;-76
2021/06/09 07:38:57;;;;;;;0.90;0.90;;;;;;;-138.14;100.00;63448.66;4960625;28;20619;-77
2021/06/09 07:41:44;;;;;;;2.33;1.10;;;;;;;-138.14;100.00;63448.66;4990532;28;20288;-76
2021/06/09 07:44:13;;;;;;;0.95;0.90;;;;;;;-138.14;100.00;63448.66;4976097;28;20695;-74
2021/06/09 07:46:39;;;;;;;0.88;0.80;;;;;;;-138.14;100.00;63448.66;4975576;28;20268;-75
2021/06/09 07:49:12;;;;;;;1.25;0.80;;;;;;;-138.14;100.00;63448.66;4975703;28;20301;-75
2021/06/09 07:52:07;;;;;;;0.80;0.80;;;;;;;-138.14;100.00;63448.66;4966499;28;20225;-75
2021/06/09 07:54:40;;;;;;;0.80;0.80;;;;;;;-138.14;100.00;63448.66;4960370;28;20566;-75
2021/06/09 07:57:25;;;;;;;0.73;0.73;;;;;;;-138.14;100.00;63448.66;4974244;28;20229;-76
2021/06/09 07:59:51;;;;;;;0.85;0.85;;;;;;;-138.14;100.00;63448.66;4978057;28;20699;-74
2021/06/09 08:02:20;;;;;;;1.65;0.80;;;;;;;-138.14;100.00;63448.66;4962952;28;20228;-76
2021/06/09 08:04:55;;;;;;;1.00;0.77;;;;;;;-138.14;100.00;63448.66;4994627;28;20695;-75
2021/06/09 08:07:27;;;;;;;0.98;0.80;;;;;;;-138.14;100.00;63448.66;4997327;28;20228;-75
2021/06/09 08:10:07;;;;;;;0.93;0.70;;;;;;;-138.14;100.00;63448.66;4982390;28;20299;-76
2021/06/09 08:12:37;;;;;;;0.93;0.63;;;;;;;-138.14;100.00;63448.66;4996615;28;20207;-74
2021/06/09 08:15:13;;;;;;;0.75;0.75;;;;;;;-138.14;100.00;63448.66;4997240;28;20557;-75
2021/06/09 08:17:44;;;;;;;0.80;0.80;;;;;;;-138.14;100.00;63448.66;4981140;28;20173;-75
2021/06/09 08:20:19;;;;;;;0.63;0.63;;;;;;;-138.14;100.00;63448.66;4981617;28;20204;-76
2021/06/09 08:22:49;;;;;;;0.73;0.70;;;;;;;-138.14;100.00;63448.66;4994329;28;20191;-74
2021/06/09 08:25:42;;;;;;;1.33;0.82;;;;;;;-138.14;100.00;63448.66;4978074;28;20181;-75
2021/06/09 08:28:19;;;;;;;0.80;0.80;;;;;;;-138.14;100.00;63448.66;4999556;28;20182;-76
2021/06/09 08:30:49;;;;;;;2.58;1.00;;;;;;;-138.14;100.00;63448.66;4992987;28;20726;-71
2021/06/09 08:33:15;;;;;;;0.75;0.75;;;;;;;-138.14;100.00;63448.66;4992752;28;20268;-75
2021/06/09 08:35:42;;;;;;;0.95;0.90;;;;;;;-138.14;100.00;63448.66;4975992;28;20221;-76
2021/06/09 08:38:12;;;;;;;0.90;0.90;;;;;;;-138.14;100.00;63448.66;4994295;28;20192;-75
2021/06/09 08:40:44;;;;;;;0.80;0.80;;;;;;;-138.14;100.00;63448.66;4993562;28;20749;-78
2021/06/09 08:43:11;;;;;;;0.80;0.80;;;;;;;-138.14;100.00;63448.66;4977229;28;20312;-76
2021/06/09 08:45:37;;;;;;;1.17;1.00;;;;;;;-138.14;100.00;63448.66;4976718;28;20221;-75
2021/06/09 08:48:07;;;;;;;1.00;1.00;;;;;;;-138.14;100.00;63448.66;4994562;28;20572;-74
2021/06/09 08:50:33;;;;;;;1.20;1.10;;;;;;;-138.14;100.00;63448.66;4979940;28;20677;-76
2021/06/09 08:53:00;;;;;;;1.00;1.00;;;;;;;-138.14;100.00;63448.66;4976360;28;20276;-77
2021/06/09 08:55:26;;;;;;;1.40;0.88;;;;;;;-138.14;100.00;63448.66;4965046;28;20221;-76
2021/06/09 08:57:55;;;;;;;1.17;1.08;;;;;;;-138.14;100.00;63448.66;4998796;28;20193;-75
2021/06/09 09:00:32;;;;;;;1.42;1.33;;;;;;;-138.14;100.00;63448.66;4997565;28;20274;-75
2021/06/09 09:03:04;;;;;;;1.25;1.10;;;;;;;-138.14;100.00;63448.66;4983895;28;20208;-75
2021/06/09 09:05:33;;;;;;;2.17;1.15;;;;;;;-138.14;100.00;63448.66;4960357;28;20252;-74
2021/06/09 09:08:01;;;;;;;1.20;1.08;;;;;;;-138.14;100.00;63448.66;4981731;28;20181;-75
2021/06/09 09:10:36;;;;;;;1.55;1.45;;;;;;;-138.14;100.00;63448.66;4981244;28;20236;-76
2021/06/09 09:13:05;;;;;;;2.63;1.38;;;;;;;-138.14;100.00;63448.66;4965228;28;20748;-73
2021/06/09 09:15:32;;;;;;;1.33;1.20;;;;;;;-138.14;100.00;63448.66;4962577;28;20741;-75
2021/06/09 09:18:00;;;;;;;1.30;1.20;;;;;;;-138.14;100.00;63448.66;4981105;28;20263;-76
2021/06/09 09:20:37;;;;;;;1.80;1.23;;;;;;;-138.14;100.00;63448.66;4960865;28;20277;-76
2021/06/09 09:23:16;;;;;;;2.00;1.30;;;;;;;-138.14;100.00;63448.66;4992199;28;20587;-77
2021/06/09 09:25:45;;;;;;;5.38;1.50;;;;;;;-138.14;100.00;63448.66;4993705;28;20217;-74
2021/06/09 09:28:29;;;;;;;1.52;1.42;;;;;;;-138.14;100.00;63448.66;4977466;28;20239;-74
2021/06/09 09:31:14;;;;;;;1.40;1.30;;;;;;;-138.14;100.00;63448.66;4962490;28;20600;-75
2021/06/09 09:33:44;;;;;;;2.45;1.30;;;;;;;-138.14;100.00;63448.66;4992652;28;20221;-75
2021/06/09 09:36:28;;;;;;;1.70;1.60;;;;;;;-138.14;100.00;63448.66;4993004;28;20308;-76
2021/06/09 09:38:58;;;;;;;1.50;1.40;;;;;;;-138.14;100.00;63448.66;4994264;28;20190;-73
2021/06/09 09:41:34;;;;;;;1.70;1.58;;;;;;;-138.14;100.00;63448.66;4992109;28;20225;-75
2021/06/09 09:44:07;;;;;;;1.83;1.70;;;;;;;-138.14;100.00;63448.66;4992390;28;20209;-74
2021/06/09 09:46:53;;;;;;;2.40;1.90;;;;;;;-138.14;100.00;63448.66;4992855;28;20586;-74
2021/06/09 09:49:21;;;;;;;1.67;1.58;;;;;;;-138.14;100.00;63448.66;4993966;28;20654;-75
2021/06/09 09:51:56;;;;;;;1.58;1.42;;;;;;;-138.14;100.00;63448.66;4993536;28;20232;-74
2021/06/09 09:54:33;;;;;;;1.10;1.00;;;;;;;-138.14;100.00;63448.66;5003730;28;20188;-75
2021/06/09 09:57:03;;;;;;;1.45;1.30;;;;;;;-138.14;100.00;63448.66;4943711;28;20304;-76
2021/06/09 09:59:31;;;;;;;1.40;1.30;;;;;;;-138.14;100.00;63448.66;4945988;28;20213;-77
2021/06/09 10:01:58;;;;;;;1.30;1.20;;;;;;;-138.14;100.00;63448.66;4974416;28;20728;-72
2021/06/09 10:47:56;;;;;;;1.45;1.40;;;;;;;28.35;36.27;101457.03;5119663;27;188947;-77
2021/06/09 10:50:24;;;;;;;1.52;1.42;;;;;;;28.67;35.92;101455.63;5038165;28;20216;-77
2021/06/09 10:52:52;;;;;;;1.45;1.35;;;;;;;28.29;36.79;101454.88;5013045;28;20191;-77
2021/06/09 10:55:18;;;;;;;1.90;1.63;;;;;;;28.19;37.80;101449.13;4991201;28;20579;-78
2021/06/09 10:57:45;;;;;;;1.58;1.48;;;;;;;28.43;36.59;101450.38;5030994;28;20187;-77
2021/06/09 11:00:13;;;;;;;1.40;1.30;;;;;;;28.13;36.20;101451.41;5011323;28;20235;-77
2021/06/09 11:02:39;;;;;;;1.70;1.50;;;;;;;27.75;36.35;101444.19;5016581;28;20190;-78
2021/06/09 11:05:10;;;;;;;1.60;1.50;;;;;;;28.10;36.40;101451.31;5014494;28;20246;-80
2021/06/09 11:07:42;;;;;;;1.50;1.40;;;;;;;28.87;36.69;101443.19;4995230;28;20773;-78
2021/06/09 11:10:12;;;;;;;1.52;1.42;;;;;;;28.14;35.47;101441.03;5019202;28;20616;-79
2021/06/09 11:12:38;;;;;;;1.30;1.20;;;;;;;28.37;36.42;101440.69;5028135;28;20263;-79
2021/06/09 11:15:22;;;;;;;2.35;1.50;;;;;;;28.56;35.95;101449.00;5044333;28;20188;-78
2021/06/09 11:17:52;;;;;;;1.50;1.40;;;;;;;29.05;34.73;101451.50;5007786;28;20188;-78
2021/06/09 11:20:49;;;;;;;1.25;1.15;;;;;;;29.60;34.46;101445.13;5029767;28;20208;-79
2021/06/09 11:23:30;;;;;;;1.52;1.42;;;;;;;29.80;34.46;101441.00;5041115;28;20211;-79
2021/06/09 11:26:02;;;;;;;1.48;1.33;;;;;;;29.34;33.42;101436.78;5025702;28;20223;-78
2021/06/09 11:28:33;;;;;;;1.50;1.40;;;;;;;29.12;33.84;101432.00;5052006;28;20197;-78
2021/06/09 11:31:22;;;;;;;1.50;1.40;;;;;;;29.54;33.37;101435.44;5063204;28;20256;-79
2021/06/09 11:33:59;;;;;;;1.50;1.40;;;;;;;29.87;34.37;101427.88;5039432;28;20192;-80
2021/06/09 11:36:43;;;;;;;2.15;1.60;;;;;;;30.01;34.58;101423.25;5036382;28;20231;-78
2021/06/09 11:39:18;;;;;;;1.50;1.40;;;;;;;30.15;33.87;101428.22;5010617;28;20215;-76
2021/06/09 11:41:47;;;;;;;1.48;1.38;;;;;;;30.03;34.28;101431.28;5048584;28;20227;-77
2021/06/09 11:44:27;;;;;;;1.60;1.50;;;;;;;30.46;33.90;101425.78;5017397;28;20230;-77
2021/06/09 11:46:53;;;;;;;1.70;1.60;;;;;;;29.50;35.05;101426.97;5050111;28;20329;-79
2021/06/09 11:49:25;;;;;;;3.00;1.50;;;;;;;30.05;36.82;101420.50;5034767;28;20230;-79
2021/06/09 11:52:00;;;;;;;1.77;1.67;;;;;;;29.24;33.98;101420.59;5064001;28;20276;-77
2021/06/09 11:54:35;;;;;;;2.40;1.63;;;;;;;28.60;35.44;101427.53;5035157;28;20202;-77
2021/06/09 11:57:18;;;;;;;1.90;1.80;;;;;;;28.96;36.82;101415.75;5048817;28;20268;-77
2021/06/09 11:59:44;;;;;;;1.95;1.85;;;;;;;29.08;36.34;101414.34;5036085;28;20206;-77
2021/06/09 12:02:17;;;;;;;1.92;1.83;;;;;;;29.27;33.95;101403.06;5018435;28;20248;-76
2021/06/09 12:04:53;;;;;;;2.17;1.98;;;;;;;30.01;33.80;101406.44;5036731;28;20617;-78
2021/06/09 12:07:31;;;;;;;2.10;2.00;;;;;;;29.41;34.16;101400.44;5020881;28;20231;-77
2021/06/09 12:10:02;;;;;;;3.60;2.00;;;;;;;29.53;33.51;101405.81;5039767;28;20234;-78
2021/06/09 12:12:29;;;;;;;2.58;2.03;;;;;;;30.09;34.50;101399.72;5026429;28;20326;-78
2021/06/09 12:14:56;;;;;;;2.45;1.95;;;;;;;30.17;33.89;101404.22;5019233;28;20537;-77
2021/06/09 12:17:26;;;;;;;1.92;1.83;;;;;;;30.28;35.02;101393.94;5018460;28;20222;-77
2021/06/09 12:20:11;;;;;;;1.77;1.60;;;;;;;30.07;34.90;101392.88;5018110;28;20199;-77
2021/06/09 12:22:54;;;;;;;1.98;1.80;;;;;;;30.31;34.65;101387.53;5020863;28;20215;-77
2021/06/09 12:25:27;;;;;;;2.10;2.00;;;;;;;29.69;34.50;101398.00;5021223;28;20214;-77